createdAt,value
2023-05-15T00:04:58.474Z,15.60
2023-05-15T00:10:01.498Z,15.20
2023-05-15T00:15:04.681Z,14.90
2023-05-15T00:20:10.073Z,14.80
2023-05-15T00:25:13.056Z,15.20
2023-05-15T00:30:16.316Z,15.40
2023-05-15T00:35:20.633Z,15.30
2023-05-15T00:40:26.141Z,15.30
2023-05-15T00:45:30.045Z,15.30
2023-05-15T00:50:34.580Z,15.40
2023-05-15T00:55:39.087Z,15.40
2023-05-15T01:00:43.676Z,15.50
2023-05-15T01:05:48.095Z,15.50
2023-05-15T01:10:53.194Z,15.40
2023-05-15T01:15:56.204Z,15.50
2023-05-15T01:21:27.865Z,15.20
2023-05-15T01:26:50.332Z,15.30
2023-05-15T01:31:59.722Z,15.40
2023-05-15T01:37:04.930Z,15.30
2023-05-15T01:42:10.788Z,15.30
2023-05-15T01:47:18.932Z,15.30
2023-05-15T01:52:27.903Z,15.40
2023-05-15T01:57:32.848Z,15.30
2023-05-15T02:02:38.197Z,15.30
2023-05-15T02:07:43.302Z,15.30
2023-05-15T02:12:46.428Z,15.40
2023-05-15T02:17:50.765Z,15.40
2023-05-15T02:22:53.677Z,15.30
2023-05-15T02:28:01.109Z,15.30
2023-05-15T02:33:15.900Z,15.20
2023-05-15T02:38:29.137Z,15.20
2023-05-15T02:43:32.650Z,15.20
2023-05-15T02:48:38.760Z,15.20
2023-05-15T02:53:42.210Z,15.20
2023-05-15T02:58:45.274Z,15.10
2023-05-15T03:03:49.759Z,15.00
2023-05-15T03:08:52.616Z,14.70
2023-05-15T03:13:55.599Z,14.60
2023-05-15T03:18:59.916Z,14.50
2023-05-15T03:24:02.930Z,14.50
2023-05-15T03:29:05.789Z,14.60
2023-05-15T03:34:10.017Z,14.50
2023-05-15T03:39:12.997Z,14.40
2023-05-15T03:44:15.829Z,14.40
2023-05-15T03:49:26.200Z,14.30
2023-05-15T03:54:29.107Z,14.40
2023-05-15T03:59:32.104Z,14.40
2023-05-15T04:04:36.293Z,14.40
2023-05-15T04:09:39.559Z,14.40
2023-05-15T04:14:42.405Z,14.50
2023-05-15T04:19:47.876Z,14.50
2023-05-15T04:24:50.810Z,14.40
2023-05-15T04:29:53.670Z,14.30
2023-05-15T04:34:58.017Z,14.30
2023-05-15T04:40:00.987Z,14.50
2023-05-15T04:45:05.314Z,14.50
2023-05-15T04:50:10.297Z,14.60
2023-05-15T04:55:13.294Z,14.50
2023-05-15T05:00:17.179Z,14.30
2023-05-15T05:05:21.614Z,14.60
2023-05-15T05:10:24.448Z,14.70
2023-05-15T05:15:27.658Z,14.70
2023-05-15T05:20:31.979Z,14.80
2023-05-15T05:25:34.860Z,14.90
2023-05-15T05:30:37.697Z,15.00
2023-05-15T05:35:41.959Z,15.10
2023-05-15T05:40:44.845Z,15.10
2023-05-15T05:45:48.144Z,15.10
2023-05-15T05:50:52.324Z,15.10
2023-05-15T05:55:55.474Z,15.10
2023-05-15T06:00:58.574Z,15.10
2023-05-15T06:06:02.909Z,15.00
2023-05-15T06:11:06.288Z,15.10
2023-05-15T06:16:09.194Z,15.30
2023-05-15T06:21:13.379Z,15.60
2023-05-15T06:26:16.296Z,15.90
2023-05-15T06:31:19.211Z,16.00
2023-05-15T06:36:24.009Z,16.10
2023-05-15T06:41:26.932Z,16.10
2023-05-15T06:46:29.814Z,16.30
2023-05-15T06:51:34.153Z,16.60
2023-05-15T06:56:37.021Z,16.80
2023-05-15T07:01:39.987Z,16.90
2023-05-15T07:06:44.478Z,17.00
2023-05-15T07:11:47.355Z,17.20
2023-05-15T07:16:50.434Z,17.60
2023-05-15T07:21:54.654Z,17.70
2023-05-15T07:26:59.181Z,17.70
2023-05-15T07:32:02.454Z,17.80
2023-05-15T07:37:06.767Z,17.70
2023-05-15T07:42:09.689Z,17.50
2023-05-15T07:47:12.561Z,17.70
2023-05-15T07:52:16.778Z,18.00
2023-05-15T07:57:20.857Z,17.80
2023-05-15T08:02:23.993Z,17.70
2023-05-15T08:07:28.302Z,18.20
2023-05-15T08:12:31.130Z,18.50
2023-05-15T08:17:34.072Z,18.60
2023-05-15T08:22:38.303Z,18.80
2023-05-15T08:27:41.167Z,18.70
2023-05-15T08:32:44.514Z,18.90
2023-05-15T08:37:48.731Z,18.90
2023-05-15T08:42:56.489Z,18.90
2023-05-15T08:48:01.541Z,18.40
2023-05-15T08:53:06.303Z,18.20
2023-05-15T08:58:10.151Z,18.10
2023-05-15T09:03:19.985Z,18.50
2023-05-15T09:08:25.859Z,18.30
2023-05-15T09:13:28.836Z,18.70
2023-05-15T09:18:33.460Z,18.70
2023-05-15T09:23:37.685Z,18.70
2023-05-15T09:28:40.938Z,18.80
2023-05-15T09:33:44.397Z,19.30
2023-05-15T09:38:49.732Z,19.20
2023-05-15T09:43:52.671Z,19.80
2023-05-15T09:48:56.080Z,20.10
2023-05-15T09:54:00.332Z,19.90
2023-05-15T09:59:03.194Z,19.40
2023-05-15T10:04:07.753Z,19.30
2023-05-15T10:09:12.874Z,19.50
2023-05-15T10:14:17.523Z,20.00
2023-05-15T10:19:23.661Z,20.30
2023-05-15T10:24:31.040Z,20.50
2023-05-15T10:29:34.804Z,20.50
2023-05-15T10:34:37.963Z,20.50
2023-05-15T10:39:44.594Z,20.80
2023-05-15T10:44:48.620Z,20.90
2023-05-15T10:49:51.484Z,21.10
2023-05-15T10:54:56.819Z,21.00
2023-05-15T11:00:01.330Z,20.90
2023-05-15T11:05:05.154Z,21.20
2023-05-15T11:10:38.359Z,21.30
2023-05-15T11:15:45.486Z,21.50
2023-05-15T11:21:08.141Z,21.70
2023-05-15T11:26:14.737Z,21.40
2023-05-15T11:31:17.698Z,20.90
2023-05-15T11:36:25.885Z,21.00
2023-05-15T11:41:33.468Z,21.20
2023-05-15T11:46:36.530Z,21.00
2023-05-15T11:51:43.098Z,20.10
2023-05-15T11:56:47.384Z,19.10
2023-05-15T12:01:50.346Z,18.40
2023-05-15T12:06:53.291Z,17.60
2023-05-15T12:11:57.504Z,17.10
2023-05-15T12:17:02.766Z,17.50
2023-05-15T12:22:06.901Z,17.80
2023-05-15T12:27:11.576Z,17.40
2023-05-15T12:32:14.701Z,17.20
2023-05-15T12:37:21.384Z,18.10
2023-05-15T12:42:26.084Z,18.40
2023-05-15T12:47:29.219Z,18.20
2023-05-15T12:52:32.664Z,18.30
2023-05-15T12:57:37.066Z,18.80
2023-05-15T13:02:40.074Z,19.00
2023-05-15T13:07:43.864Z,19.30
2023-05-15T13:12:48.140Z,19.50
2023-05-15T13:17:56.451Z,19.50
2023-05-15T13:22:59.407Z,19.50
2023-05-15T13:28:05.149Z,19.70
2023-05-15T13:33:08.473Z,19.50
2023-05-15T13:38:12.684Z,19.40
2023-05-15T13:43:16.886Z,19.30
2023-05-15T13:48:19.739Z,19.00
2023-05-15T13:53:22.730Z,19.00
2023-05-15T13:58:26.994Z,19.20
2023-05-15T14:03:30.974Z,19.50
2023-05-15T14:08:33.947Z,19.80
2023-05-15T14:13:38.116Z,19.60
2023-05-15T14:18:41.090Z,19.80
2023-05-15T14:23:44.225Z,19.90
2023-05-15T14:28:48.536Z,19.80
2023-05-15T14:33:52.517Z,20.10
2023-05-15T14:38:55.591Z,20.20
2023-05-15T14:43:59.821Z,20.30
2023-05-15T14:49:03.151Z,20.30
2023-05-15T14:54:07.761Z,20.20
2023-05-15T14:59:14.303Z,20.20
2023-05-15T15:04:17.806Z,20.20
2023-05-15T15:09:21.563Z,20.30
2023-05-15T15:14:26.117Z,20.50
2023-05-15T15:19:29.128Z,20.30
2023-05-15T15:24:32.022Z,20.10
2023-05-15T15:29:36.238Z,20.00
2023-05-15T15:34:39.084Z,19.60
2023-05-15T15:39:41.953Z,19.80
2023-05-15T15:44:52.171Z,20.10
2023-05-15T15:49:55.002Z,20.40
2023-05-15T15:54:57.959Z,20.20
2023-05-15T16:00:02.569Z,20.10
2023-05-15T16:05:11.109Z,20.20
2023-05-15T16:10:14.054Z,20.10
2023-05-15T16:15:22.383Z,20.00
2023-05-15T16:20:26.210Z,20.20
2023-05-15T16:25:29.391Z,20.20
2023-05-15T16:30:44.806Z,20.40
2023-05-15T16:35:51.514Z,20.60
2023-05-15T16:40:54.432Z,20.70
2023-05-15T16:45:58.912Z,21.00
2023-05-15T16:51:01.809Z,20.60
2023-05-15T16:56:04.924Z,20.40
2023-05-15T17:01:09.201Z,20.40
2023-05-15T17:06:12.076Z,20.30
2023-05-15T17:11:14.985Z,19.70
2023-05-15T17:16:21.454Z,19.60
2023-05-15T17:21:24.353Z,20.00
2023-05-15T17:26:28.527Z,19.90
2023-05-15T17:31:35.261Z,19.80
2023-05-15T17:36:38.133Z,19.80
2023-05-15T17:41:41.116Z,19.50
2023-05-15T17:46:45.416Z,19.80
2023-05-15T17:51:48.424Z,20.00
2023-05-15T17:56:51.312Z,19.50
2023-05-15T18:01:55.773Z,19.40
2023-05-15T18:06:58.733Z,19.40
2023-05-15T18:12:01.703Z,19.80
2023-05-15T18:17:06.425Z,19.90
2023-05-15T18:22:09.293Z,20.00
2023-05-15T18:27:12.207Z,20.10
2023-05-15T18:32:16.665Z,20.10
2023-05-15T18:37:19.541Z,20.00
2023-05-15T18:42:22.446Z,19.80
2023-05-15T18:47:26.962Z,19.80
2023-05-15T18:53:32.200Z,19.80
2023-05-15T18:59:07.133Z,19.80
2023-05-15T19:04:27.910Z,19.80
2023-05-15T19:09:59.624Z,19.90
2023-05-15T19:15:23.065Z,20.00
2023-05-15T19:20:27.711Z,19.80
2023-05-15T19:25:31.109Z,19.60
2023-05-15T19:30:34.140Z,19.50
2023-05-15T19:35:38.385Z,19.30
2023-05-15T19:40:50.199Z,19.40
2023-05-15T19:45:53.126Z,19.30
2023-05-15T19:50:57.359Z,19.20
2023-05-15T19:56:00.265Z,19.20
2023-05-15T20:01:03.566Z,19.00
2023-05-15T20:06:08.121Z,18.90
2023-05-15T20:11:11.144Z,18.80
2023-05-15T20:16:16.495Z,18.80
2023-05-15T20:21:20.901Z,18.80
2023-05-15T20:26:23.826Z,18.70
2023-05-15T20:31:28.780Z,18.70
2023-05-15T20:36:33.433Z,18.60
2023-05-15T20:41:37.084Z,18.60
2023-05-15T20:46:40.674Z,18.50
2023-05-15T20:51:44.875Z,18.50
2023-05-15T20:56:47.763Z,18.50
2023-05-15T21:01:50.733Z,18.50
2023-05-15T21:06:55.611Z,18.40
2023-05-15T21:11:59.710Z,18.40
2023-05-15T21:17:02.581Z,18.30
2023-05-15T21:22:06.823Z,18.40
2023-05-15T21:27:09.677Z,18.40
2023-05-15T21:32:12.752Z,18.20
2023-05-15T21:37:16.996Z,18.20
2023-05-15T21:42:19.830Z,18.20
2023-05-15T21:47:22.911Z,18.20
2023-05-15T21:52:27.159Z,18.20
2023-05-15T21:57:30.069Z,18.10
2023-05-15T22:02:33.012Z,18.00
2023-05-15T22:07:37.256Z,17.90
2023-05-15T22:12:40.197Z,17.90
2023-05-15T22:17:43.388Z,17.90
2023-05-15T22:22:47.685Z,17.90
2023-05-15T22:27:50.648Z,18.00
2023-05-15T22:32:53.570Z,18.00
2023-05-15T22:37:58.022Z,18.00
2023-05-15T22:43:00.845Z,17.90
2023-05-15T22:48:03.797Z,17.90
2023-05-15T22:53:08.085Z,17.90
2023-05-15T22:58:10.996Z,17.80
2023-05-15T23:03:13.948Z,17.80
2023-05-15T23:08:18.221Z,17.60
2023-05-15T23:13:21.052Z,17.50
2023-05-15T23:18:24.013Z,17.50
2023-05-15T23:23:28.234Z,17.50
2023-05-15T23:28:31.131Z,17.40
2023-05-15T23:33:34.392Z,17.30
2023-05-15T23:38:38.566Z,17.20
2023-05-15T23:43:41.446Z,17.00
2023-05-15T23:48:44.299Z,16.90
2023-05-15T23:53:50.000Z,17.10
2023-05-15T23:58:52.854Z,17.20
